Estació municipal de St. Julià de Vilatorta (Osona, E.N.Guilleries-Savassona)

Consulta les dades en temps real de l'estació municipal de St. Julià de Vilatorta





Hora UTC 21:00
Temperatura 20.5 ºC
Subsòl 10 cm 16.3 ºC
Humitat 74.5 %
Pressió 1022.1 hPa
Pluja 0.0 mm
Velocitat vent 1.9 km/h
Direcció vent SE
Radiació solar 0.5 W/m²
Fuel 6.1 %

Webcam

Dades diàries 2026-09-02



Hora UTC (hivern +1h; estiu +2h)
Temperatura (ºC) Humitat (%) Pressió (hPa) Velocitat vent (km/h) Precipitació (mm) Fuel (%) Radiació solar (W/m²)
Hora UTC Aire Subsòl 10 cm Humitat Pressió Vel. Dir. Vel. Max Dir. Intent. màx 5 min. Fuel Rad. Sol.
00:05 17.4 14.5 89.0 1020.3 1.5 S 1.5 S 0.0 8.8 0.0
00:10 17.2 14.5 89.7 1020.3 2.2 SSE 3.3 S 0.0 9.0 0.0
00:15 17.1 14.4 90.3 1020.3 2.9 SSE 5.6 S 0.0 8.2 0.1
00:20 17.2 14.1 90.6 1020.3 2.7 S 4.3 SSW 0.0 8.3 0.2
00:25 17.2 14.2 90.5 1020.4 3.2 SSE 5.1 SSE 0.0 9.1 0.1
00:30 17.3 14.3 91.1 1020.4 2.3 SSE 4.6 SSW 0.0 9.2 0.3
00:35 17.4 14.3 91.0 1020.4 1.2 SE 1.9 SE 0.0 9.2 0.2
00:40 17.4 14.1 90.5 1020.4 1.6 ESE 2.9 SE 0.0 9.3 0.0
00:45 17.3 13.9 91.3 1020.4 3.7 E 6.7 E 0.0 9.3 0.3
00:50 17.3 13.9 91.4 1020.4 4.9 E 8.0 ESE 0.0 9.4 0.3
00:55 17.4 14.0 91.2 1020.4 4.2 E 7.8 ESE 0.0 9.4 0.2
01:00 17.4 14.0 90.6 1020.3 3.5 ESE 6.0 E 0.0 9.5 0.1
01:05 17.3 14.1 90.5 1020.3 2.5 SSE 5.3 SSE 0.0 9.5 0.0
01:10 17.1 14.6 90.9 1020.3 2.9 SE 5.5 SSE 0.0 9.6 0.1
01:15 17.2 14.5 91.2 1020.4 1.2 SE 3.2 SE 0.0 9.6 0.0
01:20 17.2 14.4 91.2 1020.4 2.9 E 5.1 ESE 0.0 9.6 0.1
01:25 17.3 14.3 91.2 1020.3 3.1 SE 5.6 ESE 0.0 9.7 0.2
01:30 17.4 14.2 90.5 1020.3 3.8 ESE 5.3 E 0.0 9.7 0.2
01:35 17.4 14.1 90.4 1020.3 2.6 ESE 4.2 ESE 0.0 9.4 0.0
01:40 17.3 14.0 90.3 1020.3 3.4 E 5.2 ESE 0.0 9.7 0.0
01:45 17.1 13.9 90.6 1020.3 3.1 ESE 5.1 ESE 0.0 9.7 0.0
01:50 17.0 13.8 91.2 1020.3 2.5 E 4.3 ENE 0.0 9.9 0.1
01:55 16.9 13.7 91.6 1020.3 3.4 E 5.0 E 0.0 9.9 0.1
02:00 16.9 13.6 92.0 1020.4 2.2 SE 4.4 ESE 0.0 10.0 0.2
02:05 16.8 13.6 91.2 1020.4 2.6 SE 3.9 SE 0.0 10.0 0.0
02:10 16.6 13.8 91.5 1020.3 3.0 SSE 4.2 SSE 0.0 10.1 0.0
02:15 16.6 13.8 92.1 1020.2 2.1 SE 3.6 S 0.0 10.1 0.0
02:20 16.8 13.7 93.0 1020.2 2.4 ESE 4.4 E 0.0 10.1 0.2
02:25 16.7 13.6 92.4 1020.2 3.3 ESE 5.6 E 0.0 10.2 0.1
02:30 16.6 13.4 92.7 1020.2 3.8 E 5.9 ESE 0.0 10.2 0.0
02:35 16.6 13.6 93.1 1020.3 3.7 ENE 5.0 ENE 0.0 10.3 0.0
02:40 16.6 13.5 93.2 1020.2 2.1 SE 4.3 E 0.0 10.3 0.0
02:45 16.5 13.4 92.8 1020.3 1.8 SE 3.6 ESE 0.0 10.4 0.0
02:50 16.4 13.4 92.6 1020.3 1.6 SE 2.8 ESE 0.0 10.4 0.0
02:55 16.2 13.4 92.9 1020.3 1.6 SSE 2.7 SSE 0.0 10.4 0.0
03:00 16.2 13.5 93.0 1020.3 1.4 SE 2.7 ESE 0.0 10.5 0.0
03:05 16.1 13.3 93.3 1020.3 1.0 SE 1.6 SE 0.0 10.5 0.1
03:10 16.2 13.2 94.4 1020.3 1.9 SE 2.8 SSE 0.0 10.5 0.5
03:15 16.2 13.2 93.8 1020.3 1.8 SE 3.1 SSE 0.0 10.1 0.0
03:20 16.2 13.1 94.4 1020.3 2.7 E 4.0 ESE 0.0 10.6 0.1
03:25 16.2 13.0 94.4 1020.3 2.1 SE 3.6 ESE 0.0 10.7 0.0
03:30 16.0 13.0 93.8 1020.3 1.8 SE 3.5 SSE 0.0 10.8 0.0
03:35 15.9 13.0 94.1 1020.4 1.1 ESE 2.1 ESE 0.0 10.8 0.1
03:40 16.0 12.9 95.1 1020.4 1.5 ESE 3.0 ESE 0.0 10.8 0.2
03:45 16.1 12.7 94.9 1020.4 1.2 SSE 2.5 ESE 0.0 10.9 0.1
03:50 15.9 12.6 94.2 1020.4 1.7 S 3.3 SSE 0.0 10.9 0.0
03:55 15.7 12.7 94.2 1020.3 1.8 SE 3.5 SSE 0.0 11.0 0.0
04:00 15.8 12.7 95.1 1020.3 1.5 E 2.8 ENE 0.0 11.0 0.2
04:05 15.9 12.7 95.4 1020.2 2.0 SE 2.8 SE 0.0 11.1 0.1
04:10 15.8 12.7 95.1 1020.2 1.6 ENE 3.2 NE 0.0 10.7 0.0
04:15 15.8 12.7 95.4 1020.2 2.6 ESE 3.6 NE 0.0 11.1 0.0
04:20 15.9 12.7 95.6 1020.2 1.8 ESE 3.1 SE 0.0 11.2 0.0
04:25 15.9 12.8 95.3 1020.2 2.4 E 3.2 E 0.0 11.3 0.0
04:30 15.9 12.7 95.5 1020.2 1.9 SE 2.7 SE 0.0 11.3 0.0
04:35 15.9 12.5 95.3 1020.2 1.6 SE 3.7 SE 0.0 11.4 0.0
04:40 16.0 12.3 95.1 1020.2 1.1 SE 2.0 ESE 0.0 11.5 0.0
04:45 15.8 12.3 94.8 1020.2 1.0 SE 1.7 E 0.0 11.5 0.0
04:50 15.8 12.2 94.9 1020.2 0.9 SE 1.6 E 0.0 11.6 0.0
04:55 15.7 12.2 95.1 1020.2 1.2 SE 2.1 SE 0.0 11.6 0.0
05:00 15.5 12.2 94.5 1020.2 1.6 SE 2.4 SE 0.0 11.7 0.0
05:05 15.3 12.3 94.5 1020.2 1.4 SE 2.5 SSE 0.0 11.6 0.2
05:10 15.4 12.3 95.3 1020.2 1.5 SE 2.6 SE 0.0 11.7 1.2
05:15 15.4 12.2 95.5 1020.3 1.6 SE 2.6 ESE 0.0 11.8 1.8
05:20 15.5 12.0 95.7 1020.3 1.6 SE 2.3 SE 0.0 11.8 3.4
05:25 15.5 11.9 95.9 1020.3 2.0 SE 3.0 SE 0.0 11.9 5.3
05:30 15.5 11.9 95.8 1020.3 1.6 SE 2.4 SE 0.0 11.9 8.0
05:35 15.4 12.0 95.8 1020.3 1.2 ESE 2.1 ESE 0.0 12.0 11.2
05:40 15.5 12.0 95.9 1020.4 1.1 SE 2.1 SE 0.0 12.1 14.4
05:45 15.3 12.3 95.5 1020.5 0.8 ESE 2.1 S 0.0 12.1 17.7
05:50 15.3 12.5 95.8 1020.6 1.2 SSE 2.7 SSE 0.0 12.1 21.5
05:55 15.3 12.6 95.8 1020.5 0.8 SE 2.7 SSE 0.0 12.2 25.2
06:00 15.3 12.7 96.2 1020.6 0.7 ESE 1.6 SE 0.0 12.2 28.9
06:05 15.5 12.8 96.6 1020.6 1.4 SE 2.4 SE 0.0 12.3 32.2
06:10 15.5 13.0 96.1 1020.6 1.2 SSE 2.2 E 0.0 12.2 34.8
06:15 15.5 13.2 95.9 1020.8 0.9 S 1.4 SSE 0.0 12.3 38.3
06:20 15.6 13.4 95.9 1020.8 1.3 SSE 3.0 SE 0.0 12.2 41.7
06:25 15.7 13.7 95.9 1020.8 2.1 SSE 3.3 SSE 0.0 12.4 44.9
06:30 15.9 14.0 95.9 1020.9 1.5 S 2.8 SSE 0.0 12.4 47.7
06:35 16.0 14.2 95.9 1020.8 1.1 SSE 1.7 S 0.0 12.4 123.0
06:40 16.2 14.4 96.0 1020.9 0.8 S 1.3 S 0.0 12.4 185.3
06:45 16.4 14.7 96.0 1021.0 0.3 SSW 0.8 S 0.0 12.4 201.5
06:50 16.9 15.0 95.9 1021.1 0.9 S 2.3 S 0.0 12.4 217.3
06:55 17.7 15.4 93.6 1021.1 0.8 SSE 2.0 SSE 0.0 12.4 232.6
07:00 18.5 16.2 88.0 1021.1 1.9 S 3.5 S 0.0 12.4 247.4
07:05 19.5 16.6 81.8 1021.1 2.5 SSW 3.6 SSW 0.0 12.2 259.9
07:10 20.1 17.0 78.3 1021.1 2.5 SSW 4.6 SW 0.0 12.2 272.7
07:15 20.5 17.8 77.0 1021.1 3.5 SSW 6.3 SW 0.0 12.1 282.7
07:20 20.5 18.5 76.6 1021.1 3.8 SSW 5.6 SW 0.0 12.0 292.7
07:25 20.9 19.2 75.4 1021.1 2.5 S 4.2 SSW 0.0 11.9 307.2
07:30 21.8 19.8 73.8 1021.1 1.9 WSW 4.4 NW 0.0 11.8 324.3
07:35 20.8 19.9 76.7 1021.1 3.5 NW 5.6 NNW 0.0 11.7 340.3
07:40 20.1 20.2 79.4 1021.1 2.3 N 5.2 N 0.0 11.5 360.6
07:45 20.9 20.7 77.8 1021.0 1.5 E 4.2 WSW 0.0 11.4 377.4
07:50 21.4 20.8 74.8 1021.0 2.4 W 6.1 W 0.0 11.0 390.9
07:55 21.4 21.1 75.5 1021.1 2.3 WSW 4.7 WSW 0.0 11.2 402.2
08:00 21.1 21.3 75.7 1021.1 3.3 WNW 5.5 W 0.0 10.9 422.7
08:05 21.1 21.5 76.4 1021.1 3.0 WNW 5.8 NW 0.0 11.0 436.2
08:10 21.3 22.0 75.3 1021.2 2.5 N 6.3 N 0.0 10.9 450.2
08:15 21.9 22.9 73.9 1021.2 2.0 N 4.7 WSW 0.0 10.8 465.1
08:20 22.6 23.8 71.5 1021.3 3.2 W 6.0 NW 0.0 10.7 480.5
08:25 22.6 24.4 70.1 1021.3 2.5 WSW 5.1 SSW 0.0 10.5 494.5
08:30 22.4 25.0 71.1 1021.3 3.8 WNW 7.0 NW 0.0 10.4 509.6
08:35 22.1 25.5 71.3 1021.3 3.5 NNW 5.7 NNW 0.0 10.3 526.1
08:40 22.2 26.0 70.6 1021.3 2.7 NNW 5.0 WNW 0.0 10.2 541.3
08:45 22.5 27.0 68.7 1021.3 3.4 N 9.7 N 0.0 10.1 553.8
08:50 22.5 27.6 68.5 1021.3 3.8 NNW 6.3 NW 0.0 9.9 568.5
08:55 23.1 27.9 67.4 1021.4 2.6 NW 6.2 W 0.0 9.8 582.2
09:00 23.4 28.3 65.8 1021.4 2.6 NNW 5.5 NNW 0.0 9.7 594.3
09:05 23.6 28.9 64.7 1021.4 3.2 NNW 5.7 NNW 0.0 9.5 608.1
09:10 24.1 29.3 63.6 1021.4 3.2 N 6.3 N 0.0 9.5 621.2
09:15 24.3 29.8 62.0 1021.4 3.3 NNW 6.0 NW 0.0 9.3 635.4
09:20 24.6 29.8 61.7 1021.4 2.9 W 5.7 W 0.0 9.2 642.3
09:25 25.3 30.5 58.9 1021.4 3.3 SSE 6.6 S 0.0 9.1 656.7
09:30 25.5 30.6 57.9 1021.4 4.1 NW 6.9 NW 0.0 9.0 671.7
09:35 25.3 30.5 59.4 1021.4 3.5 W 6.9 WNW 0.0 8.5 685.9
09:40 25.7 30.8 57.1 1021.5 4.1 WNW 8.8 NW 0.0 8.8 692.8
09:45 25.8 31.3 55.6 1021.5 3.8 NNE 6.8 NNE 0.0 8.5 702.3
09:50 26.0 31.5 55.6 1021.5 4.6 W 9.8 W 0.0 8.6 714.0
09:55 26.3 31.5 53.5 1021.5 3.6 NW 7.2 NW 0.0 8.5 722.7
10:00 26.3 32.0 53.7 1021.5 3.2 WNW 5.6 W 0.0 8.3 734.9
10:05 27.0 32.8 51.6 1021.4 2.2 NNW 4.4 S 0.0 8.3 746.1
10:10 27.2 33.9 51.5 1021.4 4.1 NW 8.1 WNW 0.0 8.1 758.9
10:15 27.5 34.7 48.6 1021.4 2.5 NW 6.8 WNW 0.0 8.0 767.0
10:20 27.8 35.3 49.3 1021.3 4.0 W 8.7 WSW 0.0 7.9 756.2
10:25 28.5 36.2 45.2 1021.3 3.9 S 5.7 SSW 0.0 7.8 766.4
10:30 28.1 36.3 44.3 1021.2 2.7 N 5.6 NNW 0.0 7.6 755.3
10:35 28.1 37.1 43.8 1021.2 4.5 N 8.1 0.0 7.5 795.4
10:40 28.2 37.5 44.4 1021.1 4.3 NW 7.6 WNW 0.0 7.4 764.6
10:45 28.4 37.7 44.8 1021.1 3.3 WNW 8.1 S 0.0 7.2 776.7
10:50 29.0 39.2 42.5 1021.1 3.0 SSE 6.6 ESE 0.0 7.1 797.7
10:55 29.7 39.9 42.3 1021.0 3.4 S 6.5 SSE 0.0 7.0 817.0
11:00 29.7 40.0 41.7 1021.0 5.6 WNW 10.2 NW 0.0 6.8 827.0
11:05 29.8 40.3 42.4 1021.0 3.5 SW 5.9 SW 0.0 6.7 829.0
11:10 29.9 41.2 40.9 1020.9 3.5 N 6.9 N 0.0 6.6 840.0
11:15 29.5 41.2 41.6 1020.9 4.8 N 11.2 NW 0.0 6.5 791.0
11:20 29.5 41.3 41.5 1020.8 4.5 SSW 8.7 S 0.0 6.4 836.0
11:25 30.1 41.2 40.3 1020.8 3.5 WNW 8.4 NW 0.0 6.3 845.0
11:30 30.2 41.1 40.7 1020.8 4.4 WNW 12.6 W 0.0 6.2 849.0
11:35 30.5 41.6 40.4 1020.7 4.5 W 8.5 NW 0.0 6.1 850.0
11:40 31.2 42.0 37.9 1020.7 5.3 SSW 12.3 SSW 0.0 6.1 850.0
11:45 31.4 42.7 37.7 1020.6 4.7 S 8.4 S 0.0 5.9 849.0
11:50 31.2 42.5 38.1 1020.6 6.4 WNW 13.8 WNW 0.0 5.9 848.0
11:55 30.7 41.9 39.3 1020.5 5.5 NW 11.2 NW 0.0 5.8 850.0
12:00 31.2 43.2 38.4 1020.4 4.2 S 12.5 SSW 0.0 5.7 849.0
12:05 31.6 43.8 37.3 1020.4 6.1 W 20.2 WNW 0.0 4.9 846.0
12:10 31.7 43.4 36.4 1020.4 6.3 SSW 11.8 SSW 0.0 4.9 847.0
12:15 31.9 43.7 35.9 1020.3 5.2 W 13.9 NW 0.0 4.7 841.0
12:20 32.2 43.7 35.0 1020.3 8.0 SSW 19.0 SW 0.0 4.7 846.0
12:25 32.7 43.4 32.6 1020.3 9.4 S 18.6 SSW 0.0 4.5 849.0
12:30 32.6 43.7 32.5 1020.2 5.9 WSW 13.9 SSE 0.0 4.4 846.0
12:35 32.5 43.2 32.0 1020.2 9.1 SW 24.2 SSW 0.0 4.4 840.0
12:40 32.6 41.6 30.9 1020.2 14.3 SSW 24.8 SSW 0.0 4.2 839.0
12:45 32.8 41.5 30.7 1020.2 11.8 SSW 23.8 SSW 0.0 4.1 833.0
12:50 32.9 41.5 29.9 1020.1 11.5 SSW 23.9 SSW 0.0 4.1 830.0
12:55 32.8 40.8 30.6 1020.1 15.1 SSW 26.1 SSW 0.0 4.0 824.0
13:00 32.5 40.0 30.8 1020.1 13.6 SSW 24.5 SSW 0.0 3.9 818.0
13:05 32.7 39.9 30.8 1020.1 14.8 SSW 27.9 SSW 0.0 3.9 815.0
13:10 32.5 39.6 31.0 1020.1 17.5 SSW 30.3 SW 0.0 3.8 807.0
13:15 32.3 39.0 32.1 1020.1 15.9 SSW 28.4 SSW 0.0 3.7 802.0
13:20 32.1 38.6 32.7 1020.1 18.6 SSW 28.8 SSW 0.0 3.7 798.2
13:25 31.9 38.2 33.0 1020.1 20.1 SSW 35.2 SSW 0.0 3.6 790.1
13:30 31.8 38.2 33.5 1020.2 17.1 SSW 28.8 SSW 0.0 3.7 781.0
13:35 32.0 38.5 34.2 1020.2 14.0 SSW 30.0 SSW 0.0 3.6 766.7
13:40 31.8 38.3 34.0 1020.2 14.0 SSW 26.5 SSW 0.0 3.6 761.6
13:45 31.7 38.2 34.0 1020.1 17.8 SSW 29.6 SSW 0.0 3.6 754.7
13:50 31.4 37.8 34.5 1020.1 19.3 SSW 29.0 SSW 0.0 3.6 747.2
13:55 31.3 37.4 35.1 1020.0 18.7 SSW 29.2 SSW 0.0 3.5 736.2
14:00 31.5 37.4 34.9 1020.0 16.9 SSW 31.6 SSW 0.0 3.6 729.2
14:05 31.6 37.6 34.6 1020.1 16.9 SSW 31.8 SW 0.0 3.5 720.0
14:10 31.3 37.4 35.1 1020.1 15.9 SSW 32.9 SW 0.0 3.5 709.3
14:15 31.0 36.8 35.2 1020.1 18.6 SSW 33.6 SW 0.0 3.5 699.2
14:20 31.0 36.8 35.2 1020.0 16.8 SSW 26.2 SW 0.0 3.5 685.9
14:25 31.0 36.5 35.6 1020.0 19.6 SSW 32.9 SSW 0.0 3.4 676.7
14:30 31.1 36.6 35.8 1019.9 14.0 SSW 26.3 SSW 0.0 3.5 663.0
14:35 31.7 37.4 34.4 1019.9 15.1 SSW 28.3 SW 0.0 3.5 650.9
14:40 31.4 37.1 35.1 1019.8 17.5 SSW 31.6 SSW 0.0 3.5 641.5
14:45 31.2 37.1 34.9 1019.8 11.7 SSW 22.2 SW 0.0 3.5 628.3
14:50 31.4 37.4 35.2 1019.8 13.0 SSW 23.2 SSW 0.0 3.5 611.6
14:55 31.5 37.2 35.2 1019.8 13.1 SSW 24.8 SSW 0.0 3.4 599.2
15:00 31.5 37.3 34.9 1019.7 14.1 SSW 26.9 SW 0.0 3.5 589.5
15:05 31.4 37.0 35.2 1019.7 13.2 SSW 22.1 SSW 0.0 3.4 576.1
15:10 31.3 37.1 35.3 1019.7 12.5 SSW 22.9 SSW 0.0 3.4 560.5
15:15 31.1 36.5 35.6 1019.7 14.0 SSW 26.3 SSW 0.0 3.4 543.2
15:20 31.2 36.3 35.5 1019.7 14.5 SSW 26.0 SW 0.0 3.4 531.7
15:25 31.2 36.0 35.6 1019.7 14.0 SSW 26.4 SSW 0.0 3.4 506.0
15:30 31.1 35.6 35.6 1019.7 16.0 SSW 24.9 SSW 0.0 3.4 505.0
15:35 30.9 35.5 36.5 1019.8 14.1 SSW 25.1 SW 0.0 3.4 491.4
15:40 30.8 36.1 36.3 1019.8 9.8 S 17.1 SSW 0.0 3.4 466.0
15:45 30.9 36.2 36.1 1019.8 10.9 S 18.7 SSE 0.0 3.4 441.2
15:50 31.0 35.8 36.7 1019.8 13.8 SSW 24.0 SW 0.0 3.4 422.8
15:55 30.9 35.4 36.9 1019.8 12.4 SSW 25.0 SSW 0.0 3.4 420.5
16:00 30.9 35.2 37.2 1019.9 11.6 SSW 22.5 SW 0.0 3.4 399.4
16:05 30.9 35.0 37.3 1019.8 13.8 SSW 22.2 SW 0.0 3.5 386.3
16:10 30.7 35.1 39.3 1019.9 9.4 S 17.9 SSW 0.0 3.4 370.0
16:15 30.6 35.1 41.3 1019.9 7.9 S 13.1 SSE 0.0 3.5 352.2
16:20 30.6 34.9 41.5 1019.9 8.8 SSW 17.1 SW 0.0 3.5 337.3
16:25 30.5 34.8 42.0 1019.9 5.4 S 11.3 S 0.0 3.4 323.7
16:30 30.7 34.2 41.9 1019.9 6.2 SSE 16.4 SSE 0.0 3.6 306.2
16:35 30.3 33.5 42.0 1019.9 8.6 SSE 15.7 SSE 0.0 3.6 285.5
16:40 30.1 33.0 42.9 1019.9 6.0 S 12.7 SSW 0.0 3.6 243.6
16:45 29.9 32.4 42.9 1019.9 11.2 SSE 18.0 SSE 0.0 3.6 227.6
16:50 29.3 31.7 44.1 1019.9 8.3 SSE 17.6 SSE 0.0 3.6 217.1
16:55 29.2 30.7 44.3 1020.0 9.8 SSE 17.6 SSE 0.0 3.6 236.3
17:00 29.3 29.6 44.7 1020.0 6.6 S 12.6 SSE 0.0 3.6 226.0
17:05 29.4 28.8 44.8 1020.0 8.8 S 15.2 S 0.0 3.6 207.0
17:10 29.0 28.8 45.4 1020.1 9.3 S 15.9 SSE 0.0 3.6 184.4
17:15 28.9 29.3 45.6 1020.1 8.8 SSE 14.1 SSE 0.0 3.7 158.2
17:20 28.8 29.4 46.0 1020.1 7.0 SSE 13.6 SE 0.0 3.7 144.3
17:25 28.6 28.6 46.8 1020.2 7.3 S 12.2 SSW 0.0 3.7 128.0
17:30 28.3 27.6 47.5 1020.2 4.4 S 8.4 SE 0.0 3.7 105.3
17:35 27.9 26.8 48.9 1020.2 6.1 SSE 9.5 SSE 0.0 3.7 78.9
17:40 27.6 26.2 50.1 1020.3 3.4 SSW 8.5 SSE 0.0 3.7 74.5
17:45 27.1 25.7 50.8 1020.3 5.4 S 15.3 SSW 0.0 3.8 53.5
17:50 26.7 25.3 51.6 1020.3 5.7 SSW 11.8 SSW 0.0 3.8 33.7
17:55 26.4 24.9 52.6 1020.4 9.0 SSW 15.5 SSW 0.0 3.8 28.3
18:00 26.2 24.8 53.1 1020.4 8.9 SSW 14.5 SW 0.0 3.8 22.9
18:05 26.0 24.6 53.7 1020.4 10.0 SSW 14.8 SSW 0.0 3.9 21.0
18:10 25.9 24.4 54.4 1020.4 6.7 SSW 11.0 SSW 0.0 4.0 17.1
18:15 25.7 24.2 55.1 1020.4 6.8 SSW 11.4 SSW 0.0 4.0 12.0
18:20 25.5 24.0 55.5 1020.5 7.5 SSW 11.8 SSW 0.0 4.0 7.8
18:25 25.3 23.8 56.0 1020.5 9.6 SSW 13.6 SW 0.0 4.1 4.3
18:30 25.1 23.6 56.6 1020.6 8.2 SSW 13.9 SW 0.0 4.1 2.4
18:35 24.9 23.4 57.0 1020.7 8.0 SSW 12.6 SSW 0.0 4.1 1.2
18:40 24.7 23.2 57.6 1020.7 7.0 SSW 11.9 SSW 0.0 4.2 0.2
18:45 24.5 22.8 58.2 1020.8 6.6 SSW 11.5 SSW 0.0 4.2 0.0
18:50 24.4 22.6 58.6 1020.8 7.2 SSW 12.7 SSW 0.0 4.2 0.0
18:55 24.2 22.3 59.0 1020.9 6.9 SSW 10.4 SSW 0.0 4.3 0.0
19:00 24.1 22.2 59.2 1020.9 7.4 SSW 12.3 SSW 0.0 4.3 0.0
19:05 23.9 22.1 59.5 1021.0 7.3 SSW 12.0 SW 0.0 4.3 0.0
19:10 23.8 21.9 59.8 1021.1 8.0 SSW 12.2 SSW 0.0 4.4 0.0
19:15 23.7 21.8 60.1 1021.1 4.9 SSW 8.5 SW 0.0 4.4 0.0
19:20 23.6 21.5 60.8 1021.2 3.2 SSW 5.9 SSW 0.0 4.5 0.0
19:25 23.3 21.0 61.9 1021.3 2.7 S 8.5 SW 0.0 4.5 0.0
19:30 23.0 20.4 63.4 1021.4 2.9 SSE 4.9 SE 0.0 4.5 0.0
19:35 22.7 19.8 64.7 1021.5 2.7 S 5.3 SE 0.0 4.6 0.0
19:40 22.4 19.2 66.3 1021.5 2.5 SSE 4.8 SSE 0.0 4.6 0.0
19:45 22.2 18.7 67.2 1021.5 2.3 SSE 4.2 SSE 0.0 4.7 0.1
19:50 22.0 18.3 67.6 1021.5 1.7 SSE 3.1 SSE 0.0 4.7 0.0
19:55 21.9 17.9 68.6 1021.6 3.0 SE 4.7 SE 0.0 4.8 0.2
20:00 21.9 17.7 68.7 1021.7 2.5 SE 4.5 SE 0.0 4.9 0.4
20:05 21.7 17.5 69.4 1021.8 2.3 ESE 3.9 ESE 0.0 4.9 0.3
20:10 21.5 17.3 70.2 1021.8 1.0 SW 2.3 SW 0.0 5.6 0.3
20:15 21.3 17.1 71.6 1021.9 1.3 E 3.4 ESE 0.0 4.9 0.4
20:20 21.2 17.0 71.9 1021.9 2.0 SSE 3.3 SE 0.0 5.7 0.5
20:25 21.0 17.1 72.9 1021.9 3.0 SSE 4.5 S 0.0 5.8 0.3
20:30 20.8 17.1 73.3 1021.9 2.3 ESE 3.4 E 0.0 5.8 0.2
20:35 20.9 16.9 73.1 1021.9 1.8 SE 3.0 SSE 0.0 5.9 0.7
20:40 20.9 16.8 73.2 1021.9 2.5 ESE 4.3 ENE 0.0 5.9 0.6
20:45 20.6 16.7 74.4 1022.0 2.6 E 3.9 ENE 0.0 6.0 0.2
20:50 20.5 16.5 74.8 1022.1 1.8 SSE 2.8 SE 0.0 6.0 0.3
20:55 20.4 16.4 75.0 1022.1 2.0 SE 3.4 SE 0.0 6.1 0.5
21:00 20.5 16.3 74.5 1022.1 1.9 SE 4.0 ESE 0.0 6.1 0.5
Màxima 32.9 43.8 96.6 1022.1 20.1 SSW 35.2 SSW 0.0 12.4 850.0
Mínima 15.3 11.9 29.9 1019.7 3.4
Total 0.0